sensor_id;sensor_type;location;lat;lon;timestamp;P1;durP1;ratioP1;P2;durP2;ratioP2
37771;SDS011;23610;59.380;24.642;2023-02-13T00:02:42;8.65;;;2.10;;
37771;SDS011;23610;59.380;24.642;2023-02-13T00:07:45;6.68;;;2.35;;
37771;SDS011;23610;59.380;24.642;2023-02-13T00:12:50;6.53;;;1.85;;
37771;SDS011;23610;59.380;24.642;2023-02-13T00:17:53;6.47;;;2.53;;
37771;SDS011;23610;59.380;24.642;2023-02-13T00:22:57;7.63;;;3.00;;
37771;SDS011;23610;59.380;24.642;2023-02-13T00:28:03;4.22;;;2.40;;
37771;SDS011;23610;59.380;24.642;2023-02-13T00:33:06;13.90;;;2.20;;
37771;SDS011;23610;59.380;24.642;2023-02-13T00:38:08;12.27;;;2.22;;
37771;SDS011;23610;59.380;24.642;2023-02-13T00:43:11;2.00;;;1.38;;
37771;SDS011;23610;59.380;24.642;2023-02-13T00:48:14;7.70;;;2.00;;
37771;SDS011;23610;59.380;24.642;2023-02-13T00:53:18;7.15;;;1.85;;
37771;SDS011;23610;59.380;24.642;2023-02-13T00:58:22;4.80;;;1.70;;
37771;SDS011;23610;59.380;24.642;2023-02-13T01:03:28;5.05;;;2.15;;
37771;SDS011;23610;59.380;24.642;2023-02-13T01:08:32;9.73;;;1.23;;
37771;SDS011;23610;59.380;24.642;2023-02-13T01:13:36;4.03;;;1.27;;
37771;SDS011;23610;59.380;24.642;2023-02-13T01:18:39;6.72;;;1.95;;
37771;SDS011;23610;59.380;24.642;2023-02-13T01:23:42;2.70;;;1.13;;
37771;SDS011;23610;59.380;24.642;2023-02-13T01:28:46;7.43;;;1.60;;
37771;SDS011;23610;59.380;24.642;2023-02-13T01:33:49;4.70;;;1.88;;
37771;SDS011;23610;59.380;24.642;2023-02-13T01:38:56;2.95;;;1.13;;
37771;SDS011;23610;59.380;24.642;2023-02-13T01:44:00;7.43;;;2.10;;
37771;SDS011;23610;59.380;24.642;2023-02-13T01:54:20;11.45;;;2.20;;
37771;SDS011;23610;59.380;24.642;2023-02-13T01:59:40;14.35;;;4.00;;
37771;SDS011;23610;59.380;24.642;2023-02-13T02:04:50;12.50;;;5.65;;
37771;SDS011;23610;59.380;24.642;2023-02-13T02:09:55;16.35;;;4.70;;
37771;SDS011;23610;59.380;24.642;2023-02-13T02:15:15;3.55;;;1.75;;
37771;SDS011;23610;59.380;24.642;2023-02-13T02:31:53;8.68;;;4.57;;
37771;SDS011;23610;59.380;24.642;2023-02-13T02:54:23;186.18;;;50.03;;
37771;SDS011;23610;59.380;24.642;2023-02-13T03:00:10;118.00;;;28.80;;
37771;SDS011;23610;59.380;24.642;2023-02-13T03:05:33;185.10;;;41.80;;
37771;SDS011;23610;59.380;24.642;2023-02-13T03:10:58;340.98;;;82.97;;
37771;SDS011;23610;59.380;24.642;2023-02-13T03:16:19;45.00;;;14.27;;
37771;SDS011;23610;59.380;24.642;2023-02-13T03:33:08;22.65;;;8.35;;
37771;SDS011;23610;59.380;24.642;2023-02-13T03:49:00;45.42;;;16.58;;
37771;SDS011;23610;59.380;24.642;2023-02-13T04:00:16;12.05;;;5.05;;
37771;SDS011;23610;59.380;24.642;2023-02-13T04:05:21;11.00;;;4.22;;
37771;SDS011;23610;59.380;24.642;2023-02-13T04:10:27;2.00;;;1.35;;
37771;SDS011;23610;59.380;24.642;2023-02-13T04:15:39;4.40;;;2.28;;
37771;SDS011;23610;59.380;24.642;2023-02-13T04:21:02;2.33;;;1.17;;
37771;SDS011;23610;59.380;24.642;2023-02-13T04:26:07;1.08;;;0.98;;
37771;SDS011;23610;59.380;24.642;2023-02-13T04:31:26;5.43;;;1.30;;
37771;SDS011;23610;59.380;24.642;2023-02-13T04:36:29;3.58;;;1.15;;
37771;SDS011;23610;59.380;24.642;2023-02-13T04:41:32;1.67;;;0.70;;
37771;SDS011;23610;59.380;24.642;2023-02-13T04:46:35;1.52;;;0.80;;
37771;SDS011;23610;59.380;24.642;2023-02-13T04:51:37;4.07;;;1.55;;
37771;SDS011;23610;59.380;24.642;2023-02-13T04:56:40;2.15;;;0.82;;
37771;SDS011;23610;59.380;24.642;2023-02-13T05:01:43;1.40;;;0.90;;
37771;SDS011;23610;59.380;24.642;2023-02-13T05:06:46;2.08;;;0.70;;
37771;SDS011;23610;59.380;24.642;2023-02-13T05:11:52;3.28;;;1.52;;
37771;SDS011;23610;59.380;24.642;2023-02-13T05:16:55;1.50;;;0.93;;
37771;SDS011;23610;59.380;24.642;2023-02-13T05:21:58;3.75;;;2.13;;
37771;SDS011;23610;59.380;24.642;2023-02-13T05:27:22;2.67;;;1.60;;
37771;SDS011;23610;59.380;24.642;2023-02-13T05:32:26;1.40;;;0.40;;
37771;SDS011;23610;59.380;24.642;2023-02-13T05:37:29;0.40;;;0.35;;
37771;SDS011;23610;59.380;24.642;2023-02-13T05:42:32;0.40;;;0.40;;
37771;SDS011;23610;59.380;24.642;2023-02-13T05:47:35;1.77;;;0.65;;
37771;SDS011;23610;59.380;24.642;2023-02-13T05:52:38;2.95;;;0.73;;
37771;SDS011;23610;59.380;24.642;2023-02-13T05:57:40;3.28;;;0.50;;
37771;SDS011;23610;59.380;24.642;2023-02-13T06:02:43;2.88;;;0.70;;
37771;SDS011;23610;59.380;24.642;2023-02-13T06:07:46;4.95;;;0.55;;
37771;SDS011;23610;59.380;24.642;2023-02-13T06:12:49;5.18;;;0.95;;
37771;SDS011;23610;59.380;24.642;2023-02-13T06:17:56;2.00;;;0.50;;
37771;SDS011;23610;59.380;24.642;2023-02-13T06:23:09;0.70;;;0.30;;
37771;SDS011;23610;59.380;24.642;2023-02-13T06:28:15;1.00;;;0.30;;
37771;SDS011;23610;59.380;24.642;2023-02-13T06:33:18;1.27;;;0.43;;
37771;SDS011;23610;59.380;24.642;2023-02-13T06:38:21;1.70;;;0.50;;
37771;SDS011;23610;59.380;24.642;2023-02-13T06:43:25;1.50;;;0.50;;
37771;SDS011;23610;59.380;24.642;2023-02-13T06:48:28;2.85;;;0.43;;
37771;SDS011;23610;59.380;24.642;2023-02-13T06:53:30;0.68;;;0.40;;
37771;SDS011;23610;59.380;24.642;2023-02-13T06:58:33;1.48;;;0.68;;
37771;SDS011;23610;59.380;24.642;2023-02-13T07:03:36;2.40;;;0.40;;
37771;SDS011;23610;59.380;24.642;2023-02-13T07:08:39;2.72;;;1.00;;
37771;SDS011;23610;59.380;24.642;2023-02-13T07:13:41;1.65;;;0.50;;
37771;SDS011;23610;59.380;24.642;2023-02-13T07:18:44;1.52;;;0.70;;
37771;SDS011;23610;59.380;24.642;2023-02-13T07:23:47;5.00;;;1.20;;
37771;SDS011;23610;59.380;24.642;2023-02-13T07:28:50;0.82;;;0.40;;
37771;SDS011;23610;59.380;24.642;2023-02-13T07:34:10;0.50;;;0.40;;
37771;SDS011;23610;59.380;24.642;2023-02-13T07:39:13;3.40;;;0.57;;
37771;SDS011;23610;59.380;24.642;2023-02-13T07:44:15;2.25;;;0.75;;
37771;SDS011;23610;59.380;24.642;2023-02-13T07:49:18;0.20;;;0.20;;
37771;SDS011;23610;59.380;24.642;2023-02-13T07:54:21;1.65;;;0.50;;
37771;SDS011;23610;59.380;24.642;2023-02-13T07:59:24;1.38;;;0.50;;
37771;SDS011;23610;59.380;24.642;2023-02-13T08:04:26;2.20;;;0.40;;
37771;SDS011;23610;59.380;24.642;2023-02-13T08:09:29;0.45;;;0.40;;
37771;SDS011;23610;59.380;24.642;2023-02-13T08:14:52;0.47;;;0.22;;
37771;SDS011;23610;59.380;24.642;2023-02-13T08:19:55;2.05;;;0.60;;
37771;SDS011;23610;59.380;24.642;2023-02-13T08:24:58;2.20;;;0.68;;
37771;SDS011;23610;59.380;24.642;2023-02-13T08:30:01;1.27;;;0.68;;
37771;SDS011;23610;59.380;24.642;2023-02-13T08:35:04;2.03;;;0.60;;
37771;SDS011;23610;59.380;24.642;2023-02-13T08:40:07;4.00;;;0.60;;
37771;SDS011;23610;59.380;24.642;2023-02-13T08:45:11;1.98;;;0.60;;
37771;SDS011;23610;59.380;24.642;2023-02-13T08:50:14;5.70;;;0.63;;
37771;SDS011;23610;59.380;24.642;2023-02-13T08:55:16;3.08;;;0.50;;
37771;SDS011;23610;59.380;24.642;2023-02-13T09:00:19;6.75;;;0.80;;
37771;SDS011;23610;59.380;24.642;2023-02-13T09:05:23;2.17;;;0.30;;
37771;SDS011;23610;59.380;24.642;2023-02-13T09:10:26;2.53;;;0.60;;
37771;SDS011;23610;59.380;24.642;2023-02-13T09:15:29;2.25;;;0.75;;
37771;SDS011;23610;59.380;24.642;2023-02-13T09:20:32;1.10;;;0.38;;
37771;SDS011;23610;59.380;24.642;2023-02-13T09:25:36;0.83;;;0.67;;
37771;SDS011;23610;59.380;24.642;2023-02-13T09:30:39;0.68;;;0.60;;
37771;SDS011;23610;59.380;24.642;2023-02-13T09:35:42;8.20;;;0.47;;
37771;SDS011;23610;59.380;24.642;2023-02-13T09:40:47;4.20;;;0.55;;
37771;SDS011;23610;59.380;24.642;2023-02-13T09:45:59;3.05;;;0.93;;
37771;SDS011;23610;59.380;24.642;2023-02-13T09:51:15;1.05;;;0.75;;
37771;SDS011;23610;59.380;24.642;2023-02-13T09:56:21;3.67;;;0.88;;
37771;SDS011;23610;59.380;24.642;2023-02-13T10:01:40;0.95;;;0.50;;
37771;SDS011;23610;59.380;24.642;2023-02-13T10:12:12;5.40;;;1.90;;
37771;SDS011;23610;59.380;24.642;2023-02-13T10:17:43;2.70;;;1.00;;
37771;SDS011;23610;59.380;24.642;2023-02-13T10:22:49;1.55;;;1.00;;
37771;SDS011;23610;59.380;24.642;2023-02-13T10:27:59;4.47;;;2.25;;
37771;SDS011;23610;59.380;24.642;2023-02-13T10:33:13;6.50;;;2.83;;
37771;SDS011;23610;59.380;24.642;2023-02-13T10:38:26;3.78;;;1.17;;
37771;SDS011;23610;59.380;24.642;2023-02-13T10:43:39;6.53;;;3.03;;
37771;SDS011;23610;59.380;24.642;2023-02-13T10:49:02;13.15;;;2.25;;
37771;SDS011;23610;59.380;24.642;2023-02-13T10:54:23;3.22;;;1.63;;
37771;SDS011;23610;59.380;24.642;2023-02-13T11:10:25;3.58;;;1.23;;
37771;SDS011;23610;59.380;24.642;2023-02-13T11:15:30;2.80;;;2.13;;
37771;SDS011;23610;59.380;24.642;2023-02-13T11:20:35;3.33;;;1.20;;
37771;SDS011;23610;59.380;24.642;2023-02-13T11:25:55;3.40;;;1.30;;
37771;SDS011;23610;59.380;24.642;2023-02-13T11:31:09;4.17;;;0.67;;
37771;SDS011;23610;59.380;24.642;2023-02-13T11:36:27;5.18;;;2.08;;
37771;SDS011;23610;59.380;24.642;2023-02-13T11:41:39;8.20;;;1.27;;
37771;SDS011;23610;59.380;24.642;2023-02-13T11:46:46;0.75;;;0.50;;
37771;SDS011;23610;59.380;24.642;2023-02-13T11:51:53;3.80;;;1.17;;
37771;SDS011;23610;59.380;24.642;2023-02-13T12:02:18;1.83;;;0.60;;
37771;SDS011;23610;59.380;24.642;2023-02-13T12:07:32;4.28;;;0.85;;
37771;SDS011;23610;59.380;24.642;2023-02-13T12:13:25;6.25;;;1.25;;
37771;SDS011;23610;59.380;24.642;2023-02-13T12:50:56;3.25;;;1.00;;
37771;SDS011;23610;59.380;24.642;2023-02-13T13:24:05;3.05;;;0.80;;
37771;SDS011;23610;59.380;24.642;2023-02-13T13:34:39;4.18;;;1.00;;
37771;SDS011;23610;59.380;24.642;2023-02-13T13:46:22;2.90;;;1.00;;
37771;SDS011;23610;59.380;24.642;2023-02-13T13:51:36;4.28;;;1.08;;
37771;SDS011;23610;59.380;24.642;2023-02-13T14:07:22;3.70;;;1.05;;
37771;SDS011;23610;59.380;24.642;2023-02-13T14:22:46;2.58;;;0.90;;
37771;SDS011;23610;59.380;24.642;2023-02-13T14:27:56;7.13;;;1.25;;
37771;SDS011;23610;59.380;24.642;2023-02-13T14:33:07;3.10;;;0.85;;
37771;SDS011;23610;59.380;24.642;2023-02-13T14:38:30;2.67;;;1.40;;
37771;SDS011;23610;59.380;24.642;2023-02-13T14:43:53;6.55;;;1.17;;
37771;SDS011;23610;59.380;24.642;2023-02-13T14:49:04;4.32;;;0.90;;
37771;SDS011;23610;59.380;24.642;2023-02-13T14:54:33;2.15;;;0.98;;
37771;SDS011;23610;59.380;24.642;2023-02-13T14:59:48;4.05;;;1.10;;
37771;SDS011;23610;59.380;24.642;2023-02-13T15:15:49;3.15;;;1.20;;
37771;SDS011;23610;59.380;24.642;2023-02-13T15:20:55;5.97;;;2.20;;
37771;SDS011;23610;59.380;24.642;2023-02-13T15:26:04;2.35;;;0.90;;
37771;SDS011;23610;59.380;24.642;2023-02-13T15:31:28;1.10;;;0.80;;
37771;SDS011;23610;59.380;24.642;2023-02-13T15:36:38;2.22;;;0.95;;
37771;SDS011;23610;59.380;24.642;2023-02-13T15:41:43;4.25;;;1.50;;
37771;SDS011;23610;59.380;24.642;2023-02-13T15:46:52;4.90;;;2.25;;
37771;SDS011;23610;59.380;24.642;2023-02-13T15:52:00;8.77;;;3.08;;
37771;SDS011;23610;59.380;24.642;2023-02-13T15:57:08;5.13;;;2.05;;
37771;SDS011;23610;59.380;24.642;2023-02-13T16:02:15;7.57;;;1.90;;
37771;SDS011;23610;59.380;24.642;2023-02-13T16:07:52;8.27;;;3.75;;
37771;SDS011;23610;59.380;24.642;2023-02-13T16:13:04;20.50;;;5.47;;
37771;SDS011;23610;59.380;24.642;2023-02-13T16:18:17;15.23;;;6.82;;
37771;SDS011;23610;59.380;24.642;2023-02-13T16:23:21;13.02;;;5.32;;
37771;SDS011;23610;59.380;24.642;2023-02-13T16:28:25;12.30;;;4.97;;
37771;SDS011;23610;59.380;24.642;2023-02-13T16:33:33;21.70;;;8.25;;
37771;SDS011;23610;59.380;24.642;2023-02-13T16:38:45;11.05;;;4.18;;
37771;SDS011;23610;59.380;24.642;2023-02-13T17:04:48;9.27;;;1.70;;
37771;SDS011;23610;59.380;24.642;2023-02-13T17:09:53;6.82;;;1.50;;
37771;SDS011;23610;59.380;24.642;2023-02-13T17:14:59;2.35;;;0.95;;
37771;SDS011;23610;59.380;24.642;2023-02-13T17:20:02;2.13;;;1.20;;
37771;SDS011;23610;59.380;24.642;2023-02-13T17:25:07;3.08;;;1.48;;
37771;SDS011;23610;59.380;24.642;2023-02-13T17:30:25;4.20;;;1.67;;
37771;SDS011;23610;59.380;24.642;2023-02-13T17:35:33;7.25;;;2.20;;
37771;SDS011;23610;59.380;24.642;2023-02-13T17:40:36;4.78;;;1.45;;
37771;SDS011;23610;59.380;24.642;2023-02-13T17:45:40;10.27;;;2.60;;
37771;SDS011;23610;59.380;24.642;2023-02-13T17:50:43;7.88;;;2.50;;
37771;SDS011;23610;59.380;24.642;2023-02-13T17:55:47;4.47;;;2.00;;
37771;SDS011;23610;59.380;24.642;2023-02-13T18:00:50;7.60;;;1.30;;
37771;SDS011;23610;59.380;24.642;2023-02-13T18:05:52;7.72;;;1.83;;
37771;SDS011;23610;59.380;24.642;2023-02-13T18:10:56;3.60;;;1.38;;
37771;SDS011;23610;59.380;24.642;2023-02-13T18:15:59;6.65;;;2.70;;
37771;SDS011;23610;59.380;24.642;2023-02-13T18:21:01;3.90;;;1.70;;
37771;SDS011;23610;59.380;24.642;2023-02-13T18:26:05;5.65;;;1.95;;
37771;SDS011;23610;59.380;24.642;2023-02-13T18:31:10;10.60;;;3.17;;
37771;SDS011;23610;59.380;24.642;2023-02-13T18:36:14;6.22;;;3.40;;
37771;SDS011;23610;59.380;24.642;2023-02-13T18:41:17;9.63;;;2.35;;
37771;SDS011;23610;59.380;24.642;2023-02-13T18:46:20;6.00;;;1.95;;
37771;SDS011;23610;59.380;24.642;2023-02-13T18:51:24;5.32;;;2.65;;
37771;SDS011;23610;59.380;24.642;2023-02-13T18:56:28;6.60;;;2.42;;
37771;SDS011;23610;59.380;24.642;2023-02-13T19:01:31;14.27;;;3.95;;
37771;SDS011;23610;59.380;24.642;2023-02-13T19:06:44;6.33;;;2.43;;
37771;SDS011;23610;59.380;24.642;2023-02-13T19:12:14;6.90;;;2.40;;
37771;SDS011;23610;59.380;24.642;2023-02-13T19:17:17;5.97;;;2.60;;
37771;SDS011;23610;59.380;24.642;2023-02-13T19:22:20;10.13;;;2.47;;
37771;SDS011;23610;59.380;24.642;2023-02-13T19:27:23;6.32;;;2.65;;
37771;SDS011;23610;59.380;24.642;2023-02-13T19:32:25;10.70;;;2.78;;
37771;SDS011;23610;59.380;24.642;2023-02-13T19:38:14;11.57;;;2.45;;
37771;SDS011;23610;59.380;24.642;2023-02-13T19:43:17;4.75;;;2.47;;
37771;SDS011;23610;59.380;24.642;2023-02-13T19:48:19;3.53;;;1.67;;
37771;SDS011;23610;59.380;24.642;2023-02-13T19:53:22;4.35;;;2.42;;
37771;SDS011;23610;59.380;24.642;2023-02-13T19:58:25;8.05;;;2.08;;
37771;SDS011;23610;59.380;24.642;2023-02-13T20:04:13;9.18;;;1.80;;
37771;SDS011;23610;59.380;24.642;2023-02-13T20:09:16;9.57;;;1.25;;
37771;SDS011;23610;59.380;24.642;2023-02-13T20:14:19;7.00;;;0.70;;
37771;SDS011;23610;59.380;24.642;2023-02-13T20:19:22;4.47;;;0.77;;
37771;SDS011;23610;59.380;24.642;2023-02-13T20:24:25;7.78;;;1.05;;
37771;SDS011;23610;59.380;24.642;2023-02-13T20:30:43;4.10;;;0.93;;
37771;SDS011;23610;59.380;24.642;2023-02-13T20:35:46;3.25;;;1.10;;
37771;SDS011;23610;59.380;24.642;2023-02-13T20:41:13;4.03;;;2.17;;
37771;SDS011;23610;59.380;24.642;2023-02-13T20:46:18;2.30;;;1.40;;
37771;SDS011;23610;59.380;24.642;2023-02-13T20:51:21;6.20;;;1.30;;
37771;SDS011;23610;59.380;24.642;2023-02-13T20:56:24;6.63;;;1.65;;
37771;SDS011;23610;59.380;24.642;2023-02-13T21:01:44;2.70;;;1.88;;
37771;SDS011;23610;59.380;24.642;2023-02-13T21:06:47;1.05;;;0.60;;
37771;SDS011;23610;59.380;24.642;2023-02-13T21:12:14;6.60;;;1.67;;
37771;SDS011;23610;59.380;24.642;2023-02-13T21:17:16;6.10;;;1.60;;
37771;SDS011;23610;59.380;24.642;2023-02-13T21:22:19;4.13;;;1.83;;
37771;SDS011;23610;59.380;24.642;2023-02-13T21:27:22;4.07;;;1.35;;
37771;SDS011;23610;59.380;24.642;2023-02-13T21:32:24;5.55;;;1.30;;
37771;SDS011;23610;59.380;24.642;2023-02-13T21:37:28;4.28;;;0.82;;
37771;SDS011;23610;59.380;24.642;2023-02-13T21:42:30;2.95;;;1.20;;
37771;SDS011;23610;59.380;24.642;2023-02-13T21:47:45;5.07;;;1.43;;
37771;SDS011;23610;59.380;24.642;2023-02-13T21:52:48;2.08;;;1.15;;
37771;SDS011;23610;59.380;24.642;2023-02-13T21:57:50;5.88;;;1.20;;
37771;SDS011;23610;59.380;24.642;2023-02-13T22:03:14;4.65;;;1.52;;
37771;SDS011;23610;59.380;24.642;2023-02-13T22:08:16;3.28;;;0.90;;
37771;SDS011;23610;59.380;24.642;2023-02-13T22:13:19;2.55;;;0.80;;
37771;SDS011;23610;59.380;24.642;2023-02-13T22:18:22;3.35;;;0.73;;
37771;SDS011;23610;59.380;24.642;2023-02-13T22:23:24;3.20;;;0.93;;
37771;SDS011;23610;59.380;24.642;2023-02-13T22:34:44;4.60;;;1.50;;
37771;SDS011;23610;59.380;24.642;2023-02-13T22:39:47;2.97;;;0.80;;
37771;SDS011;23610;59.380;24.642;2023-02-13T22:44:50;3.67;;;1.05;;
37771;SDS011;23610;59.380;24.642;2023-02-13T22:49:52;5.05;;;0.68;;
37771;SDS011;23610;59.380;24.642;2023-02-13T22:55:01;2.75;;;0.82;;
37771;SDS011;23610;59.380;24.642;2023-02-13T23:00:40;2.10;;;0.90;;
37771;SDS011;23610;59.380;24.642;2023-02-13T23:05:45;4.97;;;0.57;;
37771;SDS011;23610;59.380;24.642;2023-02-13T23:10:48;3.63;;;1.70;;
37771;SDS011;23610;59.380;24.642;2023-02-13T23:23:24;3.08;;;0.80;;
37771;SDS011;23610;59.380;24.642;2023-02-13T23:28:45;3.92;;;1.10;;
37771;SDS011;23610;59.380;24.642;2023-02-13T23:33:48;4.93;;;0.90;;
37771;SDS011;23610;59.380;24.642;2023-02-13T23:38:50;14.02;;;2.92;;
37771;SDS011;23610;59.380;24.642;2023-02-13T23:43:53;5.38;;;1.92;;
37771;SDS011;23610;59.380;24.642;2023-02-13T23:49:14;5.60;;;0.80;;
37771;SDS011;23610;59.380;24.642;2023-02-13T23:54:47;2.67;;;0.70;;
37771;SDS011;23610;59.380;24.642;2023-02-13T23:59:50;7.57;;;1.05;;
